Lähimpiä lentokenttien sääasemia

 

EFHK - Helsinki/Vantaa, Finland
Ilmasuunta ja etäisyys Sääasema Bassenraitista: KO 24km
Päivitetty: 22/05/2024 11:20
Selkeätä
Selkeätä
 Tuulen suunta EKA
Tuuli: EKA 11 km/h
Lämpötila: 18°C
Kastepiste: 0°C
Kosteus: 30%
Ilmanpaine: 1027 hPa
Yhteenveto: Selkeätä
Näkyvyys: enemmän kuin 10 km
2024/05/22 08:20 EFHK 220820Z 15006KT 080V210 CAVOK 18/M00 Q1027 NOSIG
EETN - Tallinn, Estonia
Ilmasuunta ja etäisyys Sääasema Bassenraitista: E 89km
Päivitetty: 22/05/2024 11:20
Selkeätä
Selkeätä
 Tuulen suunta I
Tuuli: I 20 km/h
Lämpötila: 19°C
Kastepiste: 1°C
Kosteus: 30%
Ilmanpaine: 1025 hPa
Yhteenveto: Selkeätä
Näkyvyys: enemmän kuin 10 km
2024/05/22 08:20 EETN 220820Z 09011KT CAVOK 19/01 Q1025 NOSIG
 
EFTU - Turku/Abo, Finland
Ilmasuunta ja etäisyys Sääasema Bassenraitista: LLU 133km
Päivitetty: 22/05/2024 11:20
Selkeätä
Selkeätä
 Tuulen suunta IKA
Tuuli: IKA 11 km/h
Lämpötila: 19°C
Kastepiste: -1°C
Kosteus: 26%
Ilmanpaine: 1026 hPa
Yhteenveto: Selkeätä
Näkyvyys: enemmän kuin 10 km
2024/05/22 08:20 EFTU 220820Z AUTO 11006KT 010V160 CAVOK 19/M01 Q1026
EFTP - Tampere/Pirkkala, Finland
Ilmasuunta ja etäisyys Sääasema Bassenraitista: PLU 146km
Päivitetty: 22/05/2024 11:20
Selkeätä
Selkeätä
 Tuulen suunta varies
Tuuli: varies 6 km/h
Lämpötila: 19°C
Kastepiste: 1°C
Kosteus: 30%
Ilmanpaine: 1026 hPa
Yhteenveto: Selkeätä
Näkyvyys: enemmän kuin 10 km
2024/05/22 08:20 EFTP 220820Z VRB03KT CAVOK 19/01 Q1026
 
EFUT - Utti (fin-Afb), Finland
Ilmasuunta ja etäisyys Sääasema Bassenraitista: IKO 148km
Päivitetty: 22/05/2024 11:20
Selkeätä
Selkeätä
 Tuulen suunta LLU
Tuuli: LLU 9 km/h
Lämpötila: 18°C
Kastepiste: -1°C
Kosteus: 28%
Ilmanpaine: 1026 hPa
Yhteenveto: Selkeätä
Näkyvyys: enemmän kuin 10 km
2024/05/22 08:20 EFUT 220820Z 30005KT 270V350 CAVOK 18/M01 Q1026
EEKA - Kardla, Estonia
Ilmasuunta ja etäisyys Sääasema Bassenraitista: LO 168km
Päivitetty: 22/05/2024 11:20
Selkeätä
Selkeätä
 Tuulen suunta IKA
Tuuli: IKA 19 km/h
Lämpötila: 18°C
Kastepiste: 1°C
Kosteus: 32%
Ilmanpaine: 1024 hPa
Yhteenveto: Selkeätä
Näkyvyys: enemmän kuin 10 km
2024/05/22 08:20 EEKA 220820Z 11010KT CAVOK 18/01 Q1024
 
EFHA - Halli (fin-Afb), Finland
Ilmasuunta ja etäisyys Sääasema Bassenraitista: P 184km
Päivitetty: 22/05/2024 11:20
Selkeätä
Selkeätä
 Tuulen suunta PKO
Tuuli: PKO 4 km/h
Lämpötila: 19°C
Kastepiste: -4°C
Kosteus: 21%
Ilmanpaine: 1026 hPa
Yhteenveto: Selkeätä
Näkyvyys: enemmän kuin 10 km
2024/05/22 08:20 EFHA 220820Z 02002KT CAVOK 19/M04 Q1026
EEPU - Parnu, Estonia
Ilmasuunta ja etäisyys Sääasema Bassenraitista: E 198km
Päivitetty: 22/05/2024 11:20
Selkeätä
Selkeätä
 Tuulen suunta IKO
Tuuli: IKO 24 km/h
Lämpötila: 19°C
Kastepiste: 1°C
Kosteus: 30%
Ilmanpaine: 1024 hPa
Pilvet: Selkeätä
Näkyvyys: 10 km
2024/05/22 08:20 EEPU 220820Z AUTO 06013KT 9999 NCD 19/01 Q1024
 
EFPO - Pori (mil/Civ), Finland
Ilmasuunta ja etäisyys Sääasema Bassenraitista: LU 207km
Päivitetty: 22/05/2024 11:20
Selkeätä
Selkeätä
 Tuulen suunta varies
Tuuli: varies 6 km/h
Lämpötila: 20°C
Kastepiste: 1°C
Kosteus: 28%
Ilmanpaine: 1026 hPa
Yhteenveto: Selkeätä
Näkyvyys: enemmän kuin 10 km
2024/05/22 08:20 EFPO 220820Z AUTO VRB03KT CAVOK 20/01 Q1026
EFLP - Lappeenranta, Finland
Ilmasuunta ja etäisyys Sääasema Bassenraitista: IKO 215km
Päivitetty: 22/05/2024 11:20
Selkeätä
Selkeätä
 Tuulen suunta LU
Tuuli: LU 9 km/h
Lämpötila: 18°C
Kastepiste: 2°C
Kosteus: 34%
Ilmanpaine: 1026 hPa
Yhteenveto: Selkeätä
Näkyvyys: enemmän kuin 10 km
2024/05/22 08:20 EFLP 220820Z AUTO 31005KT 260V020 CAVOK 18/02 Q1026
 
EFMI - Mikkeli, Finland
Ilmasuunta ja etäisyys Sääasema Bassenraitista: KO 217km
Päivitetty: 22/05/2024 11:20
Selkeätä
Selkeätä
 Tuulen suunta L
Tuuli: L 15 km/h
Lämpötila: 18°C
Kastepiste: 4°C
Kosteus: 40%
Ilmanpaine: 1026 hPa
Yhteenveto: Selkeätä
Näkyvyys: enemmän kuin 10 km
2024/05/22 08:20 EFMI 220820Z AUTO 27008KT 240V310 CAVOK 18/04 Q1026
EETU - Tartu, Estonia
Ilmasuunta ja etäisyys Sääasema Bassenraitista: EKA 240km
Päivitetty: 22/05/2024 11:20
Selkeätä
Selkeätä
 Tuulen suunta IKO
Tuuli: IKO 19 km/h
Lämpötila: 16°C
Kastepiste: 1°C
Kosteus: 36%
Ilmanpaine: 1025 hPa
Yhteenveto: Selkeätä
Näkyvyys: enemmän kuin 10 km
2024/05/22 08:20 EETU 220820Z 06010KT 020V080 CAVOK 16/01 Q1025
 
EEKE - Kuressaare, Estonia
Ilmasuunta ja etäisyys Sääasema Bassenraitista: ELO 249km
Päivitetty: 22/05/2024 11:20
Selkeätä
Selkeätä
 Tuulen suunta I
Tuuli: I 26 km/h
Lämpötila: 17°C
Kastepiste: 4°C
Kosteus: 42%
Ilmanpaine: 1023 hPa
Yhteenveto: Selkeätä
Näkyvyys: enemmän kuin 10 km
2024/05/22 08:20 EEKE 220820Z 09014KT 060V120 CAVOK 17/04 Q1023
EFJY - Jyvaskyla (mil/C, Finland
Ilmasuunta ja etäisyys Sääasema Bassenraitista: PKO 252km
Päivitetty: 22/05/2024 11:20
Selkeätä
Selkeätä
 Tuulen suunta varies
Tuuli: varies 9 km/h
Lämpötila: 17°C
Kastepiste: -3°C
Kosteus: 25%
Ilmanpaine: 1026 hPa
Yhteenveto: Selkeätä
Näkyvyys: enemmän kuin 10 km
2024/05/22 08:20 EFJY 220820Z AUTO VRB05KT CAVOK 17/M03 Q1026
 
EFMA - Mariehamn/Aland, Finland
Ilmasuunta ja etäisyys Sääasema Bassenraitista: L 261km
Päivitetty: 22/05/2024 11:20
Selkeätä
Selkeätä
 Tuulen suunta I
Tuuli: I 19 km/h
Lämpötila: 17°C
Kastepiste: 4°C
Kosteus: 42%
Ilmanpaine: 1025 hPa
Yhteenveto: Selkeätä
Näkyvyys: enemmän kuin 10 km
2024/05/22 08:20 EFMA 220820Z 08010KT CAVOK 17/04 Q1025
EFSI - Seinajoki-Ilmajo, Finland
Ilmasuunta ja etäisyys Sääasema Bassenraitista: PLU 294km
Päivitetty: 22/05/2024 11:20
Selkeätä
Selkeätä
 Tuulen suunta LLO
Tuuli: LLO 13 km/h
Lämpötila: 20°C
Kastepiste: 0°C
Kosteus: 26%
Ilmanpaine: 1025 hPa
Yhteenveto: Selkeätä
Näkyvyys: enemmän kuin 10 km
2024/05/22 08:20 EFSI 220820Z AUTO 24007KT 190V280 CAVOK 20/M00 Q1025